Allendale, Illinois
Current Conditions -  °F | °C
As of 6:35 AM on Monday 20 Oct 2014 (Local Time) from KAJG Reporting Station
Scattered Clouds Scattered Clouds  
Wind Chill: 52°   Ceiling: Unl
Heat Index: 52°   Visibility: 10mi
Dew Point: 48°   Wind: 5mph
Humidity: 88%   Direction: 210°SSW
Pressure: 29.99"   Gusts: NA
Location:  38.53°N, 87.71°W
Report Text: KAJG 201135Z AUTO 21004KT 10SM SCT110 11/09 A2999 RMK AO2
Loading
Personal Weather Stations






























Interactive Weather Map New forecast layout! Learn more

10-Day Weather Forecast

Advertisements
Track Severe Weather on mobile